Time;durP1;ratioP1;P1;durP2;ratioP2;P2;SDS_P1;SDS_P2;PMS_P1;PMS_P2;Temp;Humidity;BMP_temperature;BMP_pressure;BME280_temperature;BME280_humidity;BME280_pressure;Samples;Min_cycle;Max_cycle;Signal;HPM_P1;HPM_P2
2022/09/23 00:01:08;;;;;;;7.17;4.40;;;8.80;99.90;;;;;;5053758;28;20485;-77
2022/09/23 00:03:36;;;;;;;6.60;4.93;;;8.70;99.90;;;;;;5054267;28;20470;-77
2022/09/23 00:06:05;;;;;;;4.83;4.43;;;8.70;99.90;;;;;;5053724;28;20506;-77
2022/09/23 00:08:32;;;;;;;6.40;4.60;;;8.70;99.90;;;;;;5053268;28;20452;-78
2022/09/23 00:11:05;;;;;;;11.60;4.33;;;8.60;99.90;;;;;;5053401;28;20460;-77
2022/09/23 00:13:34;;;;;;;8.10;4.77;;;8.70;99.90;;;;;;5053439;28;20496;-77
2022/09/23 00:16:03;;;;;;;5.20;4.20;;;8.60;99.90;;;;;;5053672;28;20464;-77
2022/09/23 00:18:30;;;;;;;5.07;4.00;;;8.60;99.90;;;;;;5053377;28;20535;-77
2022/09/23 00:20:56;;;;;;;7.13;3.67;;;8.60;99.90;;;;;;5046851;28;20477;-77
2022/09/23 00:23:23;;;;;;;5.57;4.03;;;8.50;99.90;;;;;;5052753;28;21027;-77
2022/09/23 00:25:55;;;;;;;5.30;4.00;;;8.50;99.90;;;;;;5053099;28;20468;-77
2022/09/23 00:28:22;;;;;;;6.90;4.10;;;8.50;99.90;;;;;;5053507;28;20503;-77
2022/09/23 00:30:50;;;;;;;5.33;4.07;;;8.50;99.90;;;;;;5053324;28;20450;-78
2022/09/23 00:33:17;;;;;;;5.13;4.10;;;8.50;99.90;;;;;;5053097;28;21015;-78
2022/09/23 00:35:44;;;;;;;9.80;4.20;;;8.50;99.90;;;;;;5052864;28;20480;-78
2022/09/23 00:38:13;;;;;;;9.43;4.57;;;8.40;99.90;;;;;;5053777;28;20453;-78
2022/09/23 00:40:43;;;;;;;5.27;4.73;;;8.40;99.90;;;;;;5052496;28;20518;-78
2022/09/23 00:43:11;;;;;;;4.67;4.20;;;8.40;99.90;;;;;;5053020;28;20461;-78
2022/09/23 00:45:38;;;;;;;4.60;4.17;;;8.40;99.90;;;;;;5052749;28;20464;-78
2022/09/23 00:48:11;;;;;;;5.00;4.50;;;8.30;99.90;;;;;;5052767;28;20512;-78
2022/09/23 00:50:41;;;;;;;4.30;3.87;;;8.30;99.90;;;;;;5052650;28;20461;-78
2022/09/23 00:53:13;;;;;;;4.90;4.47;;;8.30;99.90;;;;;;5053066;28;20491;-78
2022/09/23 00:55:45;;;;;;;6.03;4.80;;;8.20;99.90;;;;;;5052673;28;20941;-78
2022/09/23 00:58:14;;;;;;;6.57;4.10;;;8.20;99.90;;;;;;5052904;28;20986;-78
2022/09/23 01:00:41;;;;;;;4.87;4.20;;;8.10;99.90;;;;;;5052301;28;20453;-78
2022/09/23 01:03:10;;;;;;;6.70;4.40;;;8.10;99.90;;;;;;5053118;28;20559;-78
2022/09/23 01:05:38;;;;;;;13.90;4.87;;;8.10;99.90;;;;;;5052896;28;20456;-78
2022/09/23 01:08:07;;;;;;;6.73;5.10;;;8.10;99.90;;;;;;5052791;28;20460;-78
2022/09/23 01:10:43;;;;;;;7.27;5.03;;;8.10;99.90;;;;;;5051698;28;20453;-78
2022/09/23 01:13:22;;;;;;;6.83;4.70;;;8.10;99.90;;;;;;5052380;28;20459;-78
2022/09/23 01:15:53;;;;;;;13.47;4.50;;;8.00;99.90;;;;;;5051639;28;20540;-78
2022/09/23 01:18:30;;;;;;;4.63;4.23;;;8.00;99.90;;;;;;5052375;28;20451;-78
2022/09/23 01:21:11;;;;;;;5.50;4.90;;;7.90;99.90;;;;;;5046133;28;21102;-78
2022/09/23 01:24:10;;;;;;;7.20;4.87;;;7.90;99.90;;;;;;5051760;28;20487;-78
2022/09/23 01:26:55;;;;;;;7.23;6.00;;;7.80;99.90;;;;;;5052138;28;20445;-78
2022/09/23 01:30:03;;;;;;;5.77;4.83;;;7.80;99.90;;;;;;5052417;28;20518;-78
2022/09/23 01:32:39;;;;;;;4.90;4.40;;;7.70;99.90;;;;;;4990552;28;20456;-78
2022/09/23 01:35:16;;;;;;;8.10;4.67;;;7.80;99.90;;;;;;5052374;28;20475;-78
2022/09/23 01:37:48;;;;;;;6.60;5.50;;;7.70;99.90;;;;;;5052031;28;20475;-78
2022/09/23 01:40:20;;;;;;;5.67;5.13;;;7.70;99.90;;;;;;5052893;28;20453;-79
2022/09/23 01:42:53;;;;;;;5.70;4.40;;;7.60;99.90;;;;;;5052010;28;20484;-78
2022/09/23 01:45:25;;;;;;;10.80;5.00;;;7.60;99.90;;;;;;5051826;28;20478;-78
2022/09/23 01:47:56;;;;;;;7.47;5.50;;;7.60;99.90;;;;;;5044953;28;20482;-78
2022/09/23 01:53:17;;;;;;;12.70;5.37;;;7.60;99.90;;;;;;5050871;28;20509;-78
2022/09/23 01:55:48;;;;;;;7.00;5.17;;;7.50;99.90;;;;;;5051457;28;20452;-78
2022/09/23 01:58:21;;;;;;;9.10;5.50;;;7.50;99.90;;;;;;5052086;28;20486;-78
2022/09/23 02:00:53;;;;;;;7.73;5.57;;;7.50;99.90;;;;;;5051386;28;20459;-78
2022/09/23 02:03:26;;;;;;;6.43;5.60;;;7.50;99.90;;;;;;5051627;28;20477;-78
2022/09/23 02:05:58;;;;;;;9.37;6.27;;;7.50;99.90;;;;;;5050982;28;20958;-78
2022/09/23 02:08:29;;;;;;;12.33;6.10;;;7.40;99.90;;;;;;5050878;28;20449;-78
2022/09/23 02:11:03;;;;;;;7.77;6.23;;;7.40;99.90;;;;;;5051559;28;20482;-78
2022/09/23 02:13:34;;;;;;;7.00;5.90;;;7.40;99.90;;;;;;5051027;28;20474;-77
2022/09/23 02:16:07;;;;;;;11.10;5.83;;;7.40;99.90;;;;;;5045750;28;20455;-78
2022/09/23 02:18:41;;;;;;;8.17;5.53;;;7.40;99.90;;;;;;5050949;28;20886;-78
2022/09/23 02:21:10;;;;;;;7.73;5.40;;;7.40;99.90;;;;;;5050814;28;20472;-78
2022/09/23 02:23:41;;;;;;;17.03;5.33;;;7.40;99.90;;;;;;5051476;28;20483;-78
2022/09/23 02:26:14;;;;;;;9.37;6.00;;;7.40;99.90;;;;;;5051488;28;20460;-78
2022/09/23 02:28:48;;;;;;;7.30;6.23;;;7.30;99.90;;;;;;5051198;28;20454;-78
2022/09/23 02:31:26;;;;;;;7.90;5.30;;;7.30;99.90;;;;;;5050858;28;20450;-77
2022/09/23 02:33:57;;;;;;;7.73;5.10;;;7.30;99.90;;;;;;5050111;28;21018;-77
2022/09/23 02:36:30;;;;;;;7.97;5.67;;;7.30;99.90;;;;;;5050413;28;20996;-77
2022/09/23 02:39:02;;;;;;;5.80;5.20;;;7.20;99.90;;;;;;5046425;28;21022;-78
2022/09/23 02:41:35;;;;;;;6.43;5.30;;;7.20;99.90;;;;;;5050778;28;20488;-78
2022/09/23 02:44:05;;;;;;;10.40;6.20;;;7.20;99.90;;;;;;5045385;28;20531;-78
2022/09/23 02:46:33;;;;;;;8.83;5.87;;;7.10;99.90;;;;;;5050383;28;20973;-78
2022/09/23 02:49:05;;;;;;;14.10;7.47;;;7.10;99.90;;;;;;5050695;28;20550;-78
2022/09/23 02:51:37;;;;;;;9.07;5.70;;;7.10;99.90;;;;;;5050656;28;20500;-78
2022/09/23 02:54:06;;;;;;;7.67;5.80;;;7.10;99.90;;;;;;5050825;28;20490;-78
2022/09/23 02:56:33;;;;;;;6.70;5.93;;;7.10;99.90;;;;;;5050824;28;20482;-78
2022/09/23 02:59:00;;;;;;;8.73;6.03;;;7.10;99.90;;;;;;5044630;28;20461;-78
2022/09/23 03:01:38;;;;;;;10.93;5.60;;;7.10;99.90;;;;;;5050460;28;20457;-77
2022/09/23 03:04:16;;;;;;;9.80;6.67;;;7.10;99.90;;;;;;5045174;28;20472;-77
2022/09/23 03:06:55;;;;;;;6.40;5.60;;;7.00;99.90;;;;;;5050635;28;20503;-78
2022/09/23 03:09:27;;;;;;;12.30;6.27;;;7.00;99.90;;;;;;5050604;28;20460;-77
2022/09/23 03:12:04;;;;;;;11.27;6.27;;;7.00;99.90;;;;;;5050223;28;20967;-78
2022/09/23 03:14:39;;;;;;;10.27;6.00;;;6.90;99.90;;;;;;5050170;28;21042;-78
2022/09/23 03:17:11;;;;;;;13.13;6.70;;;6.90;99.90;;;;;;5048452;28;20464;-78
2022/09/23 03:19:46;;;;;;;6.43;5.73;;;6.90;99.90;;;;;;5050402;28;20476;-75
2022/09/23 03:22:18;;;;;;;8.40;7.00;;;6.90;99.90;;;;;;5050455;28;20480;-75
2022/09/23 03:24:46;;;;;;;18.90;8.00;;;6.90;99.90;;;;;;5050054;28;21102;-76
2022/09/23 03:27:17;;;;;;;8.63;6.87;;;6.90;99.90;;;;;;5050569;28;20456;-76
2022/09/23 03:29:47;;;;;;;13.83;8.03;;;6.90;99.90;;;;;;5050332;28;20462;-77
2022/09/23 03:32:17;;;;;;;15.70;7.77;;;6.80;99.90;;;;;;5051765;28;20453;-77
2022/09/23 03:34:48;;;;;;;10.53;7.20;;;6.90;99.90;;;;;;5053920;28;20470;-77
2022/09/23 03:37:20;;;;;;;10.97;7.77;;;6.80;99.90;;;;;;5054408;28;20462;-77
2022/09/23 03:39:51;;;;;;;10.20;7.10;;;6.80;99.90;;;;;;5053991;28;20825;-77
2022/09/23 03:42:23;;;;;;;9.03;8.03;;;6.80;99.90;;;;;;5054599;28;20481;-77
2022/09/23 03:44:52;;;;;;;10.53;8.20;;;6.80;99.90;;;;;;5052965;28;20478;-77
2022/09/23 03:47:20;;;;;;;13.87;8.33;;;6.80;99.90;;;;;;5053596;28;20468;-77
2022/09/23 03:49:49;;;;;;;10.50;8.30;;;6.70;99.90;;;;;;5053855;28;20451;-77
2022/09/23 03:52:17;;;;;;;13.97;7.40;;;6.70;99.90;;;;;;5054469;28;20449;-77
2022/09/23 03:54:44;;;;;;;20.00;13.33;;;6.80;99.90;;;;;;5053553;28;20507;-77
2022/09/23 03:57:12;;;;;;;26.50;14.20;;;6.80;99.90;;;;;;5054030;28;20453;-76
2022/09/23 03:59:39;;;;;;;58.73;30.83;;;6.80;99.90;;;;;;5053593;28;20456;-76
2022/09/23 04:02:07;;;;;;;16.73;11.00;;;6.80;99.90;;;;;;5053944;28;20488;-76
2022/09/23 04:04:36;;;;;;;11.40;7.83;;;6.80;99.90;;;;;;5053532;28;20477;-76
2022/09/23 04:07:04;;;;;;;19.17;12.47;;;6.90;99.90;;;;;;5053199;28;20453;-76
2022/09/23 04:09:31;;;;;;;32.40;14.97;;;6.90;99.90;;;;;;5051283;28;20473;-76
2022/09/23 04:11:58;;;;;;;23.70;15.60;;;6.90;99.90;;;;;;5053537;28;20456;-76
2022/09/23 04:14:24;;;;;;;19.90;14.13;;;6.90;99.90;;;;;;5053184;28;20988;-76
2022/09/23 04:16:51;;;;;;;32.53;17.07;;;6.90;99.90;;;;;;5053614;28;20446;-76
2022/09/23 04:19:18;;;;;;;28.83;20.50;;;6.80;99.90;;;;;;5053703;28;20449;-76
2022/09/23 04:21:45;;;;;;;15.40;10.03;;;6.90;99.90;;;;;;5053475;28;20947;-76
2022/09/23 04:24:14;;;;;;;18.97;9.90;;;6.90;99.90;;;;;;5053423;28;20480;-76
2022/09/23 04:26:41;;;;;;;12.37;8.67;;;6.80;99.90;;;;;;5052729;28;20461;-76
2022/09/23 04:29:10;;;;;;;12.50;8.97;;;6.80;99.90;;;;;;5053184;28;20463;-76
2022/09/23 04:31:37;;;;;;;9.60;8.27;;;6.80;99.90;;;;;;5053110;28;20546;-76
2022/09/23 04:34:04;;;;;;;10.63;9.03;;;6.80;99.90;;;;;;5053807;28;20824;-76
2022/09/23 04:36:30;;;;;;;13.97;11.07;;;6.80;99.90;;;;;;5052765;28;20451;-76
2022/09/23 04:38:57;;;;;;;16.53;10.90;;;6.80;99.90;;;;;;5053251;28;20446;-76
2022/09/23 04:41:25;;;;;;;12.60;9.50;;;6.80;99.90;;;;;;5052927;28;20505;-76
2022/09/23 04:43:52;;;;;;;17.97;12.93;;;6.80;99.90;;;;;;5052307;28;20494;-75
2022/09/23 04:46:19;;;;;;;11.67;9.67;;;6.80;99.90;;;;;;5052750;28;20985;-75
2022/09/23 04:48:46;;;;;;;14.13;10.53;;;6.80;99.90;;;;;;5052393;28;20888;-75
2022/09/23 04:51:15;;;;;;;13.37;10.27;;;6.80;99.90;;;;;;5052856;28;20526;-75
2022/09/23 04:53:43;;;;;;;15.30;9.23;;;6.80;99.90;;;;;;5052312;28;20512;-75
2022/09/23 04:56:13;;;;;;;17.97;9.00;;;6.80;99.90;;;;;;5052635;28;20480;-75
2022/09/23 04:58:42;;;;;;;16.53;11.90;;;6.80;99.90;;;;;;5052356;28;20456;-75
2022/09/23 05:01:11;;;;;;;20.40;12.33;;;6.80;99.90;;;;;;5052491;28;20457;-75
2022/09/23 05:03:39;;;;;;;17.60;13.33;;;6.80;99.90;;;;;;5052036;28;20489;-75
2022/09/23 05:06:07;;;;;;;18.67;14.57;;;6.80;99.90;;;;;;5052016;28;20886;-75
2022/09/23 05:08:34;;;;;;;20.23;13.50;;;6.90;99.90;;;;;;5051736;28;20464;-76
2022/09/23 05:11:04;;;;;;;14.50;11.03;;;6.90;99.90;;;;;;5052142;28;20505;-75
2022/09/23 05:13:31;;;;;;;16.40;10.17;;;6.90;99.90;;;;;;5051984;28;20537;-75
2022/09/23 05:16:00;;;;;;;18.33;9.40;;;6.90;99.90;;;;;;5052157;28;20862;-75
2022/09/23 05:18:27;;;;;;;15.47;11.70;;;6.90;99.90;;;;;;5052356;28;20587;-75
2022/09/23 05:20:55;;;;;;;21.90;14.73;;;6.90;99.90;;;;;;5052022;28;20985;-76
2022/09/23 05:23:21;;;;;;;58.80;32.87;;;6.90;99.90;;;;;;5052169;28;20517;-75
2022/09/23 05:25:48;;;;;;;135.13;80.33;;;6.90;99.90;;;;;;5052038;28;20450;-76
2022/09/23 05:28:16;;;;;;;97.50;64.43;;;6.90;99.90;;;;;;5051348;28;20490;-76
2022/09/23 05:30:44;;;;;;;23.13;16.30;;;7.00;99.90;;;;;;5050768;28;20457;-78
2022/09/23 05:33:12;;;;;;;32.80;22.20;;;7.00;99.90;;;;;;5050723;28;20476;-78
2022/09/23 05:35:38;;;;;;;15.70;11.30;;;7.00;99.90;;;;;;5050461;28;20456;-78
2022/09/23 05:38:06;;;;;;;16.90;12.63;;;7.00;99.90;;;;;;5050547;28;20481;-78
2022/09/23 05:40:32;;;;;;;25.73;15.53;;;7.00;99.90;;;;;;5050941;28;20510;-78
2022/09/23 05:42:59;;;;;;;28.63;18.00;;;7.00;99.90;;;;;;5050959;28;20491;-78
2022/09/23 05:45:26;;;;;;;12.73;8.93;;;7.10;99.90;;;;;;5051333;28;20457;-78
2022/09/23 05:47:52;;;;;;;24.50;13.93;;;7.10;99.90;;;;;;5052840;28;20487;-79
2022/09/23 05:50:20;;;;;;;19.23;12.37;;;7.20;99.90;;;;;;5056949;28;20459;-80
2022/09/23 05:52:47;;;;;;;17.43;10.40;;;7.30;99.90;;;;;;5057313;28;20458;-81
2022/09/23 05:55:14;;;;;;;14.10;8.60;;;7.40;99.90;;;;;;5055689;28;20472;-80
2022/09/23 05:57:41;;;;;;;86.57;39.13;;;7.50;99.90;;;;;;5054762;28;20458;-80
2022/09/23 06:00:09;;;;;;;113.70;47.63;;;7.60;99.90;;;;;;5055480;28;20940;-80
2022/09/23 06:02:36;;;;;;;37.50;18.00;;;7.80;99.90;;;;;;5055691;28;20479;-79
2022/09/23 06:05:03;;;;;;;17.13;8.57;;;8.00;99.90;;;;;;5056250;28;20483;-78
2022/09/23 06:07:31;;;;;;;24.77;13.60;;;8.30;99.90;;;;;;5056201;28;20457;-79
2022/09/23 06:09:58;;;;;;;17.37;10.03;;;8.70;99.90;;;;;;5057185;28;20467;-79
2022/09/23 06:12:25;;;;;;;66.43;23.30;;;9.10;99.90;;;;;;5057373;28;20457;-79
2022/09/23 06:14:52;;;;;;;25.90;16.00;;;9.50;99.90;;;;;;5056641;28;20471;-79
2022/09/23 06:17:18;;;;;;;16.83;10.47;;;9.70;99.90;;;;;;5056969;28;20510;-79
2022/09/23 06:19:45;;;;;;;102.70;42.90;;;9.90;99.90;;;;;;5057768;28;20460;-81
2022/09/23 06:22:15;;;;;;;23.30;12.33;;;9.90;99.90;;;;;;5055908;28;20582;-78
2022/09/23 06:24:43;;;;;;;27.30;12.70;;;9.90;99.90;;;;;;5056054;28;20458;-80
2022/09/23 06:27:10;;;;;;;45.57;19.87;;;9.70;99.90;;;;;;5058130;28;20448;-79
2022/09/23 06:29:37;;;;;;;18.43;9.23;;;9.60;99.90;;;;;;5056877;28;20460;-80
2022/09/23 06:32:04;;;;;;;15.60;9.13;;;9.50;99.90;;;;;;5056870;28;20449;-80
2022/09/23 06:34:31;;;;;;;19.73;11.67;;;9.50;99.90;;;;;;5056946;28;20472;-79
2022/09/23 06:36:58;;;;;;;20.10;9.20;;;9.50;99.90;;;;;;5057095;28;20452;-79
2022/09/23 06:39:25;;;;;;;19.10;8.63;;;9.40;99.90;;;;;;5054894;28;20874;-79
2022/09/23 06:41:53;;;;;;;23.23;12.67;;;9.40;99.90;;;;;;5054197;28;20505;-80
2022/09/23 06:44:20;;;;;;;11.30;7.70;;;9.40;99.90;;;;;;5057834;28;20503;-79
2022/09/23 06:46:46;;;;;;;9.60;7.47;;;9.50;99.90;;;;;;5057304;28;21000;-79
2022/09/23 06:49:13;;;;;;;15.60;7.80;;;9.50;99.90;;;;;;5057474;28;20938;-78
2022/09/23 06:51:40;;;;;;;10.47;7.83;;;9.50;99.90;;;;;;5057185;28;20453;-80
2022/09/23 06:54:07;;;;;;;15.03;7.80;;;9.60;99.90;;;;;;5057086;28;21066;-78
2022/09/23 06:56:33;;;;;;;11.60;8.43;;;9.70;99.90;;;;;;5056845;28;20553;-80
2022/09/23 06:59:01;;;;;;;28.33;14.50;;;9.90;99.90;;;;;;5057050;28;20457;-79
2022/09/23 07:01:28;;;;;;;11.27;8.13;;;10.10;99.90;;;;;;5055793;28;20449;-79
2022/09/23 07:03:55;;;;;;;8.70;7.63;;;10.30;99.90;;;;;;5056006;28;20488;-79
2022/09/23 07:06:21;;;;;;;13.27;7.50;;;10.50;99.90;;;;;;5056631;28;20885;-79
2022/09/23 07:08:50;;;;;;;13.17;7.10;;;10.80;99.90;;;;;;5053955;28;20514;-78
2022/09/23 07:11:21;;;;;;;12.67;7.40;;;11.00;99.90;;;;;;5051659;28;20449;-79
2022/09/23 07:13:48;;;;;;;8.50;6.80;;;11.20;99.90;;;;;;5041513;28;20921;-79
2022/09/23 07:16:16;;;;;;;13.77;6.50;;;11.40;99.90;;;;;;5054162;28;20445;-79
2022/09/23 07:18:44;;;;;;;10.50;7.23;;;11.50;99.90;;;;;;5053623;28;20453;-79
2022/09/23 07:21:13;;;;;;;9.60;7.00;;;11.50;99.90;;;;;;5052007;28;20453;-79
2022/09/23 07:23:41;;;;;;;14.83;7.17;;;11.50;99.90;;;;;;5052386;28;20486;-79
2022/09/23 07:26:07;;;;;;;12.13;7.70;;;11.40;99.90;;;;;;5052779;28;20587;-78
2022/09/23 07:28:35;;;;;;;13.03;7.57;;;11.20;99.90;;;;;;5052123;28;21021;-78
2022/09/23 07:31:05;;;;;;;7.97;7.07;;;11.20;99.90;;;;;;5051630;28;20515;-78
2022/09/23 07:33:33;;;;;;;8.10;7.30;;;11.20;99.90;;;;;;5050258;28;21046;-78
2022/09/23 07:36:05;;;;;;;10.93;7.20;;;11.30;99.90;;;;;;5051692;28;20449;-78
2022/09/23 07:38:31;;;;;;;16.30;7.43;;;11.30;99.90;;;;;;5052921;28;20943;-78
2022/09/23 07:41:02;;;;;;;14.00;7.93;;;11.10;99.90;;;;;;5052221;28;20989;-79
2022/09/23 07:43:31;;;;;;;10.70;6.77;;;11.10;99.90;;;;;;5046409;28;20484;-78
2022/09/23 07:45:58;;;;;;;13.43;7.60;;;11.10;99.90;;;;;;5052117;28;20455;-78
2022/09/23 07:48:25;;;;;;;25.03;7.47;;;11.10;99.90;;;;;;5053759;28;20453;-78
2022/09/23 07:50:53;;;;;;;17.07;7.10;;;11.30;99.90;;;;;;5052978;28;20463;-78
2022/09/23 07:53:20;;;;;;;14.93;7.40;;;11.60;99.90;;;;;;5050192;28;20523;-79
2022/09/23 07:55:52;;;;;;;10.57;7.00;;;11.90;99.90;;;;;;5055916;28;20449;-79
2022/09/23 07:58:19;;;;;;;12.20;8.87;;;12.20;99.90;;;;;;5056619;28;20484;-79
2022/09/23 08:00:45;;;;;;;10.63;7.30;;;12.40;99.90;;;;;;5056669;28;21022;-79
2022/09/23 08:03:13;;;;;;;6.67;5.77;;;12.60;99.90;;;;;;5056113;28;20512;-80
2022/09/23 08:05:40;;;;;;;15.03;7.83;;;13.00;99.90;;;;;;5056293;28;20883;-80
2022/09/23 08:08:08;;;;;;;9.70;6.30;;;13.30;99.90;;;;;;5056885;28;20461;-80
2022/09/23 08:10:35;;;;;;;9.87;5.20;;;13.60;99.90;;;;;;5056796;28;20554;-80
2022/09/23 08:13:02;;;;;;;15.80;5.90;;;14.20;99.90;;;;;;5054685;28;20460;-79
2022/09/23 08:15:29;;;;;;;10.57;5.00;;;14.20;99.90;;;;;;5052659;28;20448;-81
2022/09/23 08:17:58;;;;;;;9.37;5.40;;;14.40;99.90;;;;;;5056234;28;20286;-81
2022/09/23 08:23:13;;;;;;;7.30;5.23;;;14.40;99.90;;;;;;5057280;28;20436;-80
2022/09/23 08:25:40;;;;;;;6.23;5.53;;;14.30;99.90;;;;;;5057226;28;20456;-80
2022/09/23 08:28:07;;;;;;;6.10;5.50;;;14.60;99.90;;;;;;5059354;28;20468;-81
2022/09/23 08:30:34;;;;;;;7.10;5.30;;;15.00;99.90;;;;;;5058844;28;20449;-81
2022/09/23 08:33:01;;;;;;;7.23;4.97;;;15.20;99.90;;;;;;5057860;28;20458;-80
2022/09/23 08:35:28;;;;;;;10.80;5.27;;;15.00;99.90;;;;;;5058443;28;20453;-78
2022/09/23 08:37:54;;;;;;;8.30;5.50;;;14.90;99.90;;;;;;5059614;28;20452;-80
2022/09/23 08:40:24;;;;;;;7.30;5.63;;;14.80;99.90;;;;;;5060312;28;20456;-80
2022/09/23 08:42:50;;;;;;;5.63;5.13;;;14.80;99.90;;;;;;5058643;28;20441;-79
2022/09/23 08:45:21;;;;;;;5.57;5.07;;;15.20;99.90;;;;;;5059426;28;20687;-80
2022/09/23 08:47:53;;;;;;;9.73;5.80;;;15.20;99.90;;;;;;5060588;28;20484;-80
2022/09/23 08:50:21;;;;;;;5.80;5.30;;;15.50;99.90;;;;;;5058248;28;20446;-80
2022/09/23 08:52:51;;;;;;;5.50;5.00;;;15.50;99.90;;;;;;5059902;28;20462;-80
2022/09/23 08:55:19;;;;;;;12.40;5.53;;;15.50;99.90;;;;;;5058558;28;20484;-80
2022/09/23 08:58:00;;;;;;;6.43;5.83;;;15.60;99.90;;;;;;5052231;28;20468;-80
2022/09/23 09:00:34;;;;;;;7.60;5.47;;;15.50;99.90;;;;;;5059076;28;20520;-81
2022/09/23 09:03:01;;;;;;;5.23;4.73;;;15.70;99.90;;;;;;5059685;28;20449;-80
2022/09/23 09:05:30;;;;;;;9.20;5.83;;;15.70;99.90;;;;;;5059233;28;20531;-80
2022/09/23 09:08:00;;;;;;;7.57;5.70;;;16.10;99.90;;;;;;5058788;28;20538;-80
2022/09/23 09:10:33;;;;;;;7.03;5.60;;;16.00;99.90;;;;;;5059557;28;20464;-80
2022/09/23 09:13:06;;;;;;;6.47;5.40;;;16.00;99.90;;;;;;5060965;28;20484;-80
2022/09/23 09:15:42;;;;;;;5.70;5.20;;;16.20;99.90;;;;;;5060783;28;20479;-80
2022/09/23 09:18:18;;;;;;;6.00;5.00;;;16.40;99.90;;;;;;5053450;28;20503;-81
2022/09/23 09:20:56;;;;;;;6.30;5.30;;;16.30;99.90;;;;;;5053987;28;20537;-81
2022/09/23 09:23:26;;;;;;;9.90;5.20;;;16.20;99.90;;;;;;5055722;28;20996;-79
2022/09/23 09:25:55;;;;;;;5.97;5.10;;;16.30;99.90;;;;;;5051944;28;20461;-81
2022/09/23 09:28:26;;;;;;;6.93;5.20;;;16.50;99.90;;;;;;5055293;28;20453;-80
2022/09/23 09:30:56;;;;;;;8.37;5.50;;;16.50;99.90;;;;;;5052839;28;20976;-80
2022/09/23 09:33:29;;;;;;;5.23;4.73;;;16.60;99.90;;;;;;5053202;28;20485;-80
2022/09/23 09:36:19;;;;;;;7.50;5.53;;;16.70;99.90;;;;;;5053131;28;20544;-80
2022/09/23 09:38:46;;;;;;;9.73;4.67;;;16.80;99.90;;;;;;5051061;28;20558;-80
2022/09/23 09:41:16;;;;;;;8.50;5.03;;;17.00;99.90;;;;;;5058716;28;20439;-79
2022/09/23 09:43:51;;;;;;;9.50;5.47;;;17.10;99.90;;;;;;5069643;28;20491;-79
2022/09/23 09:46:36;;;;;;;5.47;4.77;;;17.20;99.90;;;;;;5067969;28;20469;-80
2022/09/23 09:49:09;;;;;;;7.87;5.73;;;17.20;99.90;;;;;;5064318;28;20992;-81
2022/09/23 09:51:38;;;;;;;8.80;5.00;;;17.30;99.90;;;;;;5064605;28;20465;-80
2022/09/23 09:54:17;;;;;;;5.30;4.90;;;17.00;99.90;;;;;;5060255;28;20483;-81
2022/09/23 09:56:44;;;;;;;5.43;4.23;;;16.90;99.90;;;;;;5053498;28;20511;-80
2022/09/23 09:59:19;;;;;;;12.03;7.83;;;17.00;99.90;;;;;;5057028;28;20461;-80
2022/09/23 10:01:46;;;;;;;5.03;4.53;;;17.30;99.90;;;;;;5057705;28;20434;-80
2022/09/23 10:04:23;;;;;;;5.53;4.90;;;17.50;99.90;;;;;;5058703;28;20515;-81
2022/09/23 10:07:05;;;;;;;7.03;4.87;;;17.30;99.90;;;;;;5057754;28;20507;-80
2022/09/23 10:09:35;;;;;;;10.53;5.20;;;17.60;99.90;;;;;;5057626;28;20431;-79
2022/09/23 10:12:20;;;;;;;5.27;4.80;;;17.80;99.90;;;;;;5055952;28;20416;-79
2022/09/23 10:14:50;;;;;;;6.45;4.20;;;17.90;99.90;;;;;;5043829;28;20441;-78
2022/09/23 10:17:21;;;;;;;4.85;4.20;;;18.00;99.90;;;;;;5049025;28;20513;-76
2022/09/23 10:19:49;;;;;;;4.30;3.90;;;18.20;99.90;;;;;;5050821;28;20986;-77
2022/09/23 10:22:21;;;;;;;6.40;4.73;;;18.20;99.90;;;;;;5051099;28;20210;-78
2022/09/23 10:24:51;;;;;;;5.07;4.53;;;18.40;99.90;;;;;;5051625;28;20524;-77
2022/09/23 10:27:27;;;;;;;5.90;5.33;;;18.50;99.90;;;;;;5051541;28;20474;-78
2022/09/23 10:29:57;;;;;;;6.83;4.80;;;18.70;99.90;;;;;;5051711;28;20423;-78
2022/09/23 10:32:27;;;;;;;6.83;4.60;;;18.60;99.90;;;;;;5051968;28;20427;-79
2022/09/23 10:34:57;;;;;;;5.00;4.60;;;18.70;99.90;;;;;;5052970;28;20443;-79
2022/09/23 10:37:34;;;;;;;4.77;4.33;;;18.90;99.90;;;;;;5053314;28;20431;-79
2022/09/23 10:49:11;;;;;;;8.97;4.60;;;19.50;99.90;;;;;;5047718;28;20515;-79
2022/09/23 10:51:45;;;;;;;6.80;4.53;;;19.40;99.90;;;;;;5049468;28;20450;-79
2022/09/23 10:54:22;;;;;;;5.00;4.60;;;19.40;99.90;;;;;;5052267;28;20457;-79
2022/09/23 10:56:54;;;;;;;5.23;4.73;;;19.30;99.90;;;;;;5051067;28;20445;-80
2022/09/23 10:59:50;;;;;;;5.10;4.60;;;19.00;99.90;;;;;;5051405;28;20423;-79
2022/09/23 11:02:39;;;;;;;5.93;4.83;;;19.00;99.90;;;;;;5046613;28;20431;-79
2022/09/23 11:05:26;;;;;;;6.83;4.23;;;19.00;99.90;;;;;;5050026;28;20467;-80
2022/09/23 11:08:02;;;;;;;7.63;5.07;;;19.30;99.90;;;;;;5054648;28;20428;-79
2022/09/23 11:10:48;;;;;;;4.47;4.07;;;19.40;99.90;;;;;;5054609;28;20422;-79
2022/09/23 11:13:26;;;;;;;5.07;4.67;;;19.30;99.90;;;;;;5050198;28;20449;-79
2022/09/23 11:16:02;;;;;;;5.90;4.67;;;19.10;99.90;;;;;;5051705;28;20423;-79
2022/09/23 11:18:50;;;;;;;5.20;4.60;;;19.00;99.90;;;;;;5051792;28;20456;-78
2022/09/23 11:21:39;;;;;;;4.40;4.00;;;19.20;99.90;;;;;;5051609;28;21035;-79
2022/09/23 11:24:32;;;;;;;6.30;3.90;;;19.20;99.90;;;;;;5050014;28;20480;-79
2022/09/23 11:27:10;;;;;;;6.07;4.67;;;19.50;99.90;;;;;;5051514;28;20471;-79
2022/09/23 11:29:55;;;;;;;4.30;3.67;;;19.60;99.90;;;;;;5051427;28;20461;-80
2022/09/23 11:32:41;;;;;;;5.93;3.53;;;19.40;99.90;;;;;;5051800;28;20419;-79
2022/09/23 11:35:18;;;;;;;5.00;4.13;;;19.50;99.90;;;;;;5051413;28;20458;-80
2022/09/23 11:37:48;;;;;;;4.83;4.07;;;19.40;99.90;;;;;;5051739;28;20929;-79
2022/09/23 11:40:20;;;;;;;6.20;4.47;;;19.40;99.90;;;;;;5051275;28;20435;-78
2022/09/23 11:42:59;;;;;;;4.27;3.87;;;19.60;99.90;;;;;;5051631;28;20503;-78
2022/09/23 11:45:30;;;;;;;4.03;3.73;;;19.70;99.90;;;;;;5051204;28;20908;-79
2022/09/23 11:48:01;;;;;;;4.60;4.20;;;19.90;99.90;;;;;;5051342;28;20527;-79
2022/09/23 11:50:34;;;;;;;9.10;4.13;;;19.80;99.90;;;;;;5051185;28;20445;-78
2022/09/23 11:53:07;;;;;;;6.90;4.47;;;19.80;99.90;;;;;;5052355;28;20841;-79
2022/09/23 11:55:40;;;;;;;4.23;3.93;;;19.70;99.90;;;;;;5055117;28;20454;-78
2022/09/23 11:58:13;;;;;;;5.90;3.60;;;19.60;99.90;;;;;;5055232;28;20919;-78
2022/09/23 12:00:46;;;;;;;4.10;3.70;;;19.40;99.90;;;;;;5056036;28;20430;-78
2022/09/23 12:03:22;;;;;;;4.40;3.87;;;19.30;99.90;;;;;;5054867;28;20972;-78
2022/09/23 12:05:57;;;;;;;7.63;3.43;;;19.10;99.90;;;;;;5054758;28;20461;-78
2022/09/23 12:08:27;;;;;;;4.70;4.20;;;19.10;99.90;;;;;;5054739;28;20455;-79
2022/09/23 12:11:03;;;;;;;5.87;4.60;;;19.20;99.90;;;;;;5054668;28;20423;-79
2022/09/23 12:13:38;;;;;;;7.47;4.47;;;19.20;99.90;;;;;;5054617;28;20447;-80
2022/09/23 12:16:28;;;;;;;4.53;4.20;;;19.50;99.90;;;;;;5054664;28;20444;-79
2022/09/23 12:19:03;;;;;;;8.50;4.30;;;19.60;99.90;;;;;;5054785;28;20888;-79
2022/09/23 12:21:58;;;;;;;4.93;4.50;;;19.60;99.90;;;;;;5054709;28;20477;-79
2022/09/23 12:24:46;;;;;;;5.03;4.63;;;19.70;99.90;;;;;;5054395;28;20477;-79
2022/09/23 12:27:23;;;;;;;6.83;4.90;;;19.90;99.90;;;;;;5054484;28;20432;-79
2022/09/23 12:29:56;;;;;;;7.60;4.00;;;19.90;99.90;;;;;;5054391;28;20485;-79
2022/09/23 12:32:23;;;;;;;5.73;4.27;;;19.80;99.90;;;;;;5054348;28;20704;-78
2022/09/23 12:34:52;;;;;;;7.53;4.53;;;19.90;99.90;;;;;;5054365;28;20503;-78
2022/09/23 12:37:31;;;;;;;6.17;4.60;;;19.70;99.90;;;;;;5054620;28;20484;-78
2022/09/23 12:40:08;;;;;;;4.90;4.43;;;19.50;99.90;;;;;;5054139;28;20452;-79
2022/09/23 12:42:39;;;;;;;5.07;4.20;;;19.60;99.90;;;;;;5054041;28;20424;-79
2022/09/23 12:45:33;;;;;;;5.37;4.53;;;19.50;99.90;;;;;;5054128;28;20471;-79
2022/09/23 12:48:00;;;;;;;7.20;4.87;;;19.60;99.90;;;;;;5052667;28;20817;-78
2022/09/23 12:50:48;;;;;;;4.50;4.10;;;19.60;99.90;;;;;;5053929;28;20942;-78
2022/09/23 12:53:51;;;;;;;5.70;4.30;;;19.90;99.90;;;;;;5054240;28;20518;-79
2022/09/23 12:56:23;;;;;;;5.30;4.80;;;20.00;99.90;;;;;;5053926;28;20473;-78
2022/09/23 12:59:25;;;;;;;6.07;4.20;;;20.20;99.90;;;;;;5054129;28;20424;-79
2022/09/23 13:01:52;;;;;;;11.27;5.13;;;20.50;99.90;;;;;;5031711;28;20455;-79
2022/09/23 13:07:32;;;;;;;4.60;4.10;;;20.80;99.90;;;;;;5053582;28;20412;-79
2022/09/23 13:10:06;;;;;;;7.70;4.53;;;21.00;99.90;;;;;;5053396;28;20993;-79
2022/09/23 13:12:38;;;;;;;6.70;4.27;;;20.80;99.90;;;;;;5053976;28;20487;-79
2022/09/23 13:15:16;;;;;;;6.77;4.27;;;20.90;99.90;;;;;;5053358;28;20461;-79
2022/09/23 13:17:42;;;;;;;5.63;3.70;;;21.10;99.90;;;;;;5053598;28;20427;-80
2022/09/23 13:20:35;;;;;;;4.47;4.03;;;21.10;99.90;;;;;;5053274;28;20460;-79
2022/09/23 13:23:23;;;;;;;7.87;4.17;;;21.20;99.90;;;;;;5053584;28;20438;-79
2022/09/23 13:25:52;;;;;;;4.30;3.90;;;21.10;99.90;;;;;;5053037;28;20997;-79